sensor_id;sensor_type;location;lat;lon;timestamp;P1;durP1;ratioP1;P2;durP2;ratioP2
4317;SDS011;2172;53.576;9.934;2023-04-24T00:02:25;12.37;;;11.27;;
4317;SDS011;2172;53.576;9.934;2023-04-24T00:04:52;13.23;;;12.03;;
4317;SDS011;2172;53.576;9.934;2023-04-24T00:07:20;12.33;;;11.23;;
4317;SDS011;2172;53.576;9.934;2023-04-24T00:09:48;12.57;;;11.33;;
4317;SDS011;2172;53.576;9.934;2023-04-24T00:12:15;13.07;;;11.67;;
4317;SDS011;2172;53.576;9.934;2023-04-24T00:14:43;13.37;;;11.50;;
4317;SDS011;2172;53.576;9.934;2023-04-24T00:17:10;13.30;;;11.97;;
4317;SDS011;2172;53.576;9.934;2023-04-24T00:19:39;13.07;;;11.77;;
4317;SDS011;2172;53.576;9.934;2023-04-24T00:22:08;14.37;;;12.00;;
4317;SDS011;2172;53.576;9.934;2023-04-24T00:24:36;12.33;;;11.13;;
4317;SDS011;2172;53.576;9.934;2023-04-24T00:27:03;12.37;;;11.13;;
4317;SDS011;2172;53.576;9.934;2023-04-24T00:29:31;13.47;;;12.07;;
4317;SDS011;2172;53.576;9.934;2023-04-24T00:31:59;12.80;;;11.50;;
4317;SDS011;2172;53.576;9.934;2023-04-24T00:34:26;13.73;;;11.30;;
4317;SDS011;2172;53.576;9.934;2023-04-24T00:36:55;13.40;;;11.53;;
4317;SDS011;2172;53.576;9.934;2023-04-24T00:39:23;12.70;;;11.37;;
4317;SDS011;2172;53.576;9.934;2023-04-24T00:41:50;13.07;;;11.83;;
4317;SDS011;2172;53.576;9.934;2023-04-24T00:44:18;12.70;;;11.00;;
4317;SDS011;2172;53.576;9.934;2023-04-24T00:46:46;10.93;;;9.90;;
4317;SDS011;2172;53.576;9.934;2023-04-24T00:49:17;11.90;;;10.70;;
4317;SDS011;2172;53.576;9.934;2023-04-24T00:51:45;11.80;;;10.60;;
4317;SDS011;2172;53.576;9.934;2023-04-24T00:54:16;11.90;;;10.80;;
4317;SDS011;2172;53.576;9.934;2023-04-24T00:56:43;11.87;;;10.67;;
4317;SDS011;2172;53.576;9.934;2023-04-24T00:59:12;11.90;;;10.53;;
4317;SDS011;2172;53.576;9.934;2023-04-24T01:01:39;11.30;;;10.23;;
4317;SDS011;2172;53.576;9.934;2023-04-24T01:04:08;11.67;;;10.50;;
4317;SDS011;2172;53.576;9.934;2023-04-24T01:06:36;11.07;;;9.73;;
4317;SDS011;2172;53.576;9.934;2023-04-24T01:09:06;12.30;;;11.00;;
4317;SDS011;2172;53.576;9.934;2023-04-24T01:11:36;11.53;;;10.53;;
4317;SDS011;2172;53.576;9.934;2023-04-24T01:14:04;10.60;;;9.57;;
4317;SDS011;2172;53.576;9.934;2023-04-24T01:16:31;10.60;;;9.70;;
4317;SDS011;2172;53.576;9.934;2023-04-24T01:19:00;10.93;;;9.93;;
4317;SDS011;2172;53.576;9.934;2023-04-24T01:21:27;11.33;;;10.23;;
4317;SDS011;2172;53.576;9.934;2023-04-24T01:23:59;10.70;;;9.70;;
4317;SDS011;2172;53.576;9.934;2023-04-24T01:26:27;11.10;;;10.00;;
4317;SDS011;2172;53.576;9.934;2023-04-24T01:28:54;9.77;;;8.87;;
4317;SDS011;2172;53.576;9.934;2023-04-24T01:31:22;9.83;;;8.83;;
4317;SDS011;2172;53.576;9.934;2023-04-24T01:33:50;9.27;;;8.47;;
4317;SDS011;2172;53.576;9.934;2023-04-24T01:36:18;9.83;;;8.93;;
4317;SDS011;2172;53.576;9.934;2023-04-24T01:38:46;10.23;;;9.23;;
4317;SDS011;2172;53.576;9.934;2023-04-24T01:41:15;8.90;;;8.03;;
4317;SDS011;2172;53.576;9.934;2023-04-24T01:43:45;9.63;;;8.10;;
4317;SDS011;2172;53.576;9.934;2023-04-24T01:46:13;8.07;;;7.27;;
4317;SDS011;2172;53.576;9.934;2023-04-24T01:48:41;8.23;;;6.70;;
4317;SDS011;2172;53.576;9.934;2023-04-24T01:51:08;8.63;;;6.97;;
4317;SDS011;2172;53.576;9.934;2023-04-24T01:53:36;6.73;;;6.10;;
4317;SDS011;2172;53.576;9.934;2023-04-24T01:56:04;6.90;;;6.20;;
4317;SDS011;2172;53.576;9.934;2023-04-24T01:58:33;7.37;;;5.97;;
4317;SDS011;2172;53.576;9.934;2023-04-24T02:01:01;6.03;;;5.30;;
4317;SDS011;2172;53.576;9.934;2023-04-24T02:03:29;5.20;;;4.70;;
4317;SDS011;2172;53.576;9.934;2023-04-24T02:05:57;5.90;;;5.20;;
4317;SDS011;2172;53.576;9.934;2023-04-24T02:08:25;4.90;;;4.50;;
4317;SDS011;2172;53.576;9.934;2023-04-24T02:10:52;6.00;;;4.90;;
4317;SDS011;2172;53.576;9.934;2023-04-24T02:13:20;5.80;;;5.20;;
4317;SDS011;2172;53.576;9.934;2023-04-24T02:15:49;8.13;;;5.27;;
4317;SDS011;2172;53.576;9.934;2023-04-24T02:18:17;4.50;;;4.10;;
4317;SDS011;2172;53.576;9.934;2023-04-24T02:20:45;4.20;;;3.80;;
4317;SDS011;2172;53.576;9.934;2023-04-24T02:23:13;3.80;;;3.40;;
4317;SDS011;2172;53.576;9.934;2023-04-24T02:25:40;3.13;;;2.90;;
4317;SDS011;2172;53.576;9.934;2023-04-24T02:28:08;3.37;;;3.07;;
4317;SDS011;2172;53.576;9.934;2023-04-24T02:30:36;3.83;;;3.27;;
4317;SDS011;2172;53.576;9.934;2023-04-24T02:33:08;5.87;;;3.93;;
4317;SDS011;2172;53.576;9.934;2023-04-24T02:35:35;6.60;;;5.13;;
4317;SDS011;2172;53.576;9.934;2023-04-24T02:38:03;5.03;;;4.53;;
4317;SDS011;2172;53.576;9.934;2023-04-24T02:40:30;4.67;;;4.27;;
4317;SDS011;2172;53.576;9.934;2023-04-24T02:42:58;5.20;;;4.70;;
4317;SDS011;2172;53.576;9.934;2023-04-24T02:45:25;4.27;;;3.87;;
4317;SDS011;2172;53.576;9.934;2023-04-24T02:47:53;4.67;;;4.27;;
4317;SDS011;2172;53.576;9.934;2023-04-24T02:50:22;4.80;;;4.37;;
4317;SDS011;2172;53.576;9.934;2023-04-24T02:52:50;4.80;;;3.67;;
4317;SDS011;2172;53.576;9.934;2023-04-24T02:55:17;5.00;;;4.50;;
4317;SDS011;2172;53.576;9.934;2023-04-24T02:57:45;4.23;;;3.93;;
4317;SDS011;2172;53.576;9.934;2023-04-24T03:00:13;4.60;;;4.17;;
4317;SDS011;2172;53.576;9.934;2023-04-24T03:02:41;4.80;;;4.30;;
4317;SDS011;2172;53.576;9.934;2023-04-24T03:05:09;5.20;;;4.80;;
4317;SDS011;2172;53.576;9.934;2023-04-24T03:07:38;6.33;;;5.00;;
4317;SDS011;2172;53.576;9.934;2023-04-24T03:10:06;4.57;;;4.17;;
4317;SDS011;2172;53.576;9.934;2023-04-24T03:12:34;6.40;;;4.00;;
4317;SDS011;2172;53.576;9.934;2023-04-24T03:15:02;4.03;;;3.40;;
4317;SDS011;2172;53.576;9.934;2023-04-24T03:17:30;7.23;;;3.80;;
4317;SDS011;2172;53.576;9.934;2023-04-24T03:19:57;3.87;;;3.53;;
4317;SDS011;2172;53.576;9.934;2023-04-24T03:22:25;3.70;;;3.40;;
4317;SDS011;2172;53.576;9.934;2023-04-24T03:24:54;4.50;;;3.50;;
4317;SDS011;2172;53.576;9.934;2023-04-24T03:27:22;3.90;;;3.50;;
4317;SDS011;2172;53.576;9.934;2023-04-24T03:29:55;3.77;;;3.43;;
4317;SDS011;2172;53.576;9.934;2023-04-24T03:32:33;5.53;;;3.80;;
4317;SDS011;2172;53.576;9.934;2023-04-24T03:35:01;5.13;;;4.40;;
4317;SDS011;2172;53.576;9.934;2023-04-24T03:37:29;6.40;;;3.87;;
4317;SDS011;2172;53.576;9.934;2023-04-24T03:40:19;4.33;;;3.83;;
4317;SDS011;2172;53.576;9.934;2023-04-24T03:42:46;3.70;;;3.40;;
4317;SDS011;2172;53.576;9.934;2023-04-24T03:45:14;6.57;;;3.60;;
4317;SDS011;2172;53.576;9.934;2023-04-24T03:47:46;4.50;;;3.83;;
4317;SDS011;2172;53.576;9.934;2023-04-24T03:50:14;5.10;;;4.60;;
4317;SDS011;2172;53.576;9.934;2023-04-24T03:52:42;5.60;;;4.27;;
4317;SDS011;2172;53.576;9.934;2023-04-24T03:55:29;4.03;;;3.63;;
4317;SDS011;2172;53.576;9.934;2023-04-24T03:57:57;3.90;;;3.60;;
4317;SDS011;2172;53.576;9.934;2023-04-24T04:00:25;3.70;;;3.13;;
4317;SDS011;2172;53.576;9.934;2023-04-24T04:03:11;3.50;;;3.20;;
4317;SDS011;2172;53.576;9.934;2023-04-24T04:05:40;3.27;;;2.97;;
4317;SDS011;2172;53.576;9.934;2023-04-24T04:08:07;4.70;;;3.70;;
4317;SDS011;2172;53.576;9.934;2023-04-24T04:10:55;3.40;;;3.10;;
4317;SDS011;2172;53.576;9.934;2023-04-24T04:13:22;5.10;;;3.77;;
4317;SDS011;2172;53.576;9.934;2023-04-24T04:15:50;5.50;;;4.30;;
4317;SDS011;2172;53.576;9.934;2023-04-24T04:18:18;6.40;;;4.83;;
4317;SDS011;2172;53.576;9.934;2023-04-24T04:20:45;5.53;;;4.50;;
4317;SDS011;2172;53.576;9.934;2023-04-24T04:23:14;7.43;;;4.47;;
4317;SDS011;2172;53.576;9.934;2023-04-24T04:26:18;7.73;;;4.40;;
4317;SDS011;2172;53.576;9.934;2023-04-24T04:29:06;6.33;;;3.80;;
4317;SDS011;2172;53.576;9.934;2023-04-24T04:31:38;5.30;;;3.67;;
4317;SDS011;2172;53.576;9.934;2023-04-24T04:34:09;3.50;;;2.93;;
4317;SDS011;2172;53.576;9.934;2023-04-24T04:36:39;3.13;;;2.93;;
4317;SDS011;2172;53.576;9.934;2023-04-24T04:39:19;3.23;;;2.87;;
4317;SDS011;2172;53.576;9.934;2023-04-24T04:42:01;2.93;;;2.63;;
4317;SDS011;2172;53.576;9.934;2023-04-24T04:44:36;2.57;;;2.27;;
4317;SDS011;2172;53.576;9.934;2023-04-24T04:47:05;3.27;;;2.80;;
4317;SDS011;2172;53.576;9.934;2023-04-24T04:49:36;2.50;;;2.23;;
4317;SDS011;2172;53.576;9.934;2023-04-24T04:52:08;3.43;;;2.57;;
4317;SDS011;2172;53.576;9.934;2023-04-24T04:54:36;3.57;;;2.90;;
4317;SDS011;2172;53.576;9.934;2023-04-24T04:57:04;4.37;;;3.67;;
4317;SDS011;2172;53.576;9.934;2023-04-24T04:59:33;4.87;;;3.40;;
4317;SDS011;2172;53.576;9.934;2023-04-24T05:02:06;5.03;;;4.07;;
4317;SDS011;2172;53.576;9.934;2023-04-24T05:04:36;7.00;;;3.70;;
4317;SDS011;2172;53.576;9.934;2023-04-24T05:07:04;3.30;;;3.00;;
4317;SDS011;2172;53.576;9.934;2023-04-24T05:09:34;6.40;;;3.17;;
4317;SDS011;2172;53.576;9.934;2023-04-24T05:12:06;8.67;;;3.70;;
4317;SDS011;2172;53.576;9.934;2023-04-24T05:14:40;3.70;;;3.10;;
4317;SDS011;2172;53.576;9.934;2023-04-24T05:17:09;5.70;;;2.90;;
4317;SDS011;2172;53.576;9.934;2023-04-24T05:19:37;3.77;;;2.70;;
4317;SDS011;2172;53.576;9.934;2023-04-24T05:22:05;3.00;;;2.70;;
4317;SDS011;2172;53.576;9.934;2023-04-24T05:24:40;6.67;;;2.33;;
4317;SDS011;2172;53.576;9.934;2023-04-24T05:27:17;3.80;;;2.73;;
4317;SDS011;2172;53.576;9.934;2023-04-24T05:29:47;3.30;;;2.27;;
4317;SDS011;2172;53.576;9.934;2023-04-24T05:32:15;2.60;;;2.03;;
4317;SDS011;2172;53.576;9.934;2023-04-24T05:34:43;3.37;;;2.07;;
4317;SDS011;2172;53.576;9.934;2023-04-24T05:37:12;1.90;;;1.80;;
4317;SDS011;2172;53.576;9.934;2023-04-24T05:39:40;3.00;;;2.10;;
4317;SDS011;2172;53.576;9.934;2023-04-24T05:42:08;2.53;;;1.90;;
4317;SDS011;2172;53.576;9.934;2023-04-24T05:44:37;2.60;;;2.40;;
4317;SDS011;2172;53.576;9.934;2023-04-24T05:47:04;4.07;;;2.80;;
4317;SDS011;2172;53.576;9.934;2023-04-24T05:49:32;5.70;;;2.73;;
4317;SDS011;2172;53.576;9.934;2023-04-24T05:51:59;3.10;;;2.80;;
4317;SDS011;2172;53.576;9.934;2023-04-24T05:54:29;4.50;;;2.70;;
4317;SDS011;2172;53.576;9.934;2023-04-24T05:56:56;3.50;;;2.70;;
4317;SDS011;2172;53.576;9.934;2023-04-24T05:59:33;3.50;;;3.20;;
4317;SDS011;2172;53.576;9.934;2023-04-24T06:02:03;3.33;;;2.40;;
4317;SDS011;2172;53.576;9.934;2023-04-24T06:04:31;2.60;;;2.40;;
4317;SDS011;2172;53.576;9.934;2023-04-24T06:07:00;4.07;;;3.30;;
4317;SDS011;2172;53.576;9.934;2023-04-24T06:09:28;2.80;;;2.50;;
4317;SDS011;2172;53.576;9.934;2023-04-24T06:11:56;2.73;;;2.30;;
4317;SDS011;2172;53.576;9.934;2023-04-24T06:14:32;3.30;;;2.27;;
4317;SDS011;2172;53.576;9.934;2023-04-24T06:17:24;2.60;;;2.40;;
4317;SDS011;2172;53.576;9.934;2023-04-24T06:19:52;5.83;;;2.27;;
4317;SDS011;2172;53.576;9.934;2023-04-24T06:22:22;3.20;;;2.50;;
4317;SDS011;2172;53.576;9.934;2023-04-24T06:24:49;4.40;;;2.57;;
4317;SDS011;2172;53.576;9.934;2023-04-24T06:27:17;2.70;;;2.50;;
4317;SDS011;2172;53.576;9.934;2023-04-24T06:29:44;4.27;;;3.87;;
4317;SDS011;2172;53.576;9.934;2023-04-24T06:32:17;3.73;;;2.97;;
4317;SDS011;2172;53.576;9.934;2023-04-24T06:34:46;3.10;;;2.80;;
4317;SDS011;2172;53.576;9.934;2023-04-24T06:37:14;2.60;;;2.40;;
4317;SDS011;2172;53.576;9.934;2023-04-24T06:39:41;4.40;;;2.93;;
4317;SDS011;2172;53.576;9.934;2023-04-24T06:42:09;2.53;;;2.33;;
4317;SDS011;2172;53.576;9.934;2023-04-24T06:44:37;3.57;;;3.27;;
4317;SDS011;2172;53.576;9.934;2023-04-24T06:47:07;3.80;;;2.80;;
4317;SDS011;2172;53.576;9.934;2023-04-24T06:49:34;5.70;;;3.03;;
4317;SDS011;2172;53.576;9.934;2023-04-24T06:52:03;4.53;;;2.83;;
4317;SDS011;2172;53.576;9.934;2023-04-24T06:54:32;4.00;;;3.10;;
4317;SDS011;2172;53.576;9.934;2023-04-24T06:56:59;3.87;;;2.60;;
4317;SDS011;2172;53.576;9.934;2023-04-24T06:59:27;4.83;;;3.93;;
4317;SDS011;2172;53.576;9.934;2023-04-24T07:01:55;5.03;;;3.23;;
4317;SDS011;2172;53.576;9.934;2023-04-24T07:04:23;5.97;;;3.23;;
4317;SDS011;2172;53.576;9.934;2023-04-24T07:06:50;4.50;;;3.00;;
4317;SDS011;2172;53.576;9.934;2023-04-24T07:09:20;3.67;;;3.37;;
4317;SDS011;2172;53.576;9.934;2023-04-24T07:11:49;4.80;;;3.90;;
4317;SDS011;2172;53.576;9.934;2023-04-24T07:14:16;4.30;;;3.90;;
4317;SDS011;2172;53.576;9.934;2023-04-24T07:16:44;4.80;;;3.90;;
4317;SDS011;2172;53.576;9.934;2023-04-24T07:19:12;4.87;;;4.47;;
4317;SDS011;2172;53.576;9.934;2023-04-24T07:21:42;6.00;;;4.53;;
4317;SDS011;2172;53.576;9.934;2023-04-24T07:24:09;4.93;;;4.43;;
4317;SDS011;2172;53.576;9.934;2023-04-24T07:26:39;5.47;;;5.00;;
4317;SDS011;2172;53.576;9.934;2023-04-24T07:29:07;5.20;;;4.70;;
4317;SDS011;2172;53.576;9.934;2023-04-24T07:31:35;6.37;;;5.80;;
4317;SDS011;2172;53.576;9.934;2023-04-24T07:34:03;5.30;;;4.80;;
4317;SDS011;2172;53.576;9.934;2023-04-24T07:36:31;5.83;;;5.33;;
4317;SDS011;2172;53.576;9.934;2023-04-24T07:38:58;6.53;;;5.87;;
4317;SDS011;2172;53.576;9.934;2023-04-24T07:41:26;6.80;;;6.10;;
4317;SDS011;2172;53.576;9.934;2023-04-24T07:43:55;5.93;;;5.43;;
4317;SDS011;2172;53.576;9.934;2023-04-24T07:46:23;5.73;;;5.13;;
4317;SDS011;2172;53.576;9.934;2023-04-24T07:48:50;6.77;;;6.17;;
4317;SDS011;2172;53.576;9.934;2023-04-24T07:51:18;6.47;;;5.87;;
4317;SDS011;2172;53.576;9.934;2023-04-24T07:53:46;6.17;;;5.57;;
4317;SDS011;2172;53.576;9.934;2023-04-24T07:56:13;7.60;;;5.30;;
4317;SDS011;2172;53.576;9.934;2023-04-24T07:58:42;7.10;;;6.50;;
4317;SDS011;2172;53.576;9.934;2023-04-24T08:01:11;7.47;;;6.77;;
4317;SDS011;2172;53.576;9.934;2023-04-24T08:03:38;7.13;;;6.50;;
4317;SDS011;2172;53.576;9.934;2023-04-24T08:06:06;7.47;;;6.73;;
4317;SDS011;2172;53.576;9.934;2023-04-24T08:08:34;6.33;;;5.83;;
4317;SDS011;2172;53.576;9.934;2023-04-24T08:11:01;7.30;;;6.70;;
4317;SDS011;2172;53.576;9.934;2023-04-24T08:13:29;8.00;;;7.30;;
4317;SDS011;2172;53.576;9.934;2023-04-24T08:15:57;8.40;;;7.50;;
4317;SDS011;2172;53.576;9.934;2023-04-24T08:18:26;8.37;;;7.23;;
4317;SDS011;2172;53.576;9.934;2023-04-24T08:20:53;7.97;;;6.93;;
4317;SDS011;2172;53.576;9.934;2023-04-24T08:23:21;8.63;;;7.73;;
4317;SDS011;2172;53.576;9.934;2023-04-24T08:25:48;8.67;;;7.77;;
4317;SDS011;2172;53.576;9.934;2023-04-24T08:28:16;9.23;;;8.33;;
4317;SDS011;2172;53.576;9.934;2023-04-24T08:30:45;8.40;;;7.70;;
4317;SDS011;2172;53.576;9.934;2023-04-24T08:33:13;7.90;;;7.10;;
4317;SDS011;2172;53.576;9.934;2023-04-24T08:35:42;9.40;;;8.50;;
4317;SDS011;2172;53.576;9.934;2023-04-24T08:38:10;8.57;;;7.77;;
4317;SDS011;2172;53.576;9.934;2023-04-24T08:40:37;9.17;;;8.30;;
4317;SDS011;2172;53.576;9.934;2023-04-24T08:43:05;9.70;;;8.50;;
4317;SDS011;2172;53.576;9.934;2023-04-24T08:45:33;9.30;;;8.23;;
4317;SDS011;2172;53.576;9.934;2023-04-24T08:48:01;9.13;;;8.23;;
4317;SDS011;2172;53.576;9.934;2023-04-24T08:50:29;10.33;;;8.70;;
4317;SDS011;2172;53.576;9.934;2023-04-24T08:52:58;10.00;;;9.10;;
4317;SDS011;2172;53.576;9.934;2023-04-24T08:55:27;9.20;;;8.30;;
4317;SDS011;2172;53.576;9.934;2023-04-24T08:57:57;9.70;;;8.80;;
4317;SDS011;2172;53.576;9.934;2023-04-24T09:00:25;9.83;;;8.97;;
4317;SDS011;2172;53.576;9.934;2023-04-24T09:02:53;9.83;;;8.87;;
4317;SDS011;2172;53.576;9.934;2023-04-24T09:05:21;9.47;;;8.57;;
4317;SDS011;2172;53.576;9.934;2023-04-24T09:07:51;10.37;;;9.40;;
4317;SDS011;2172;53.576;9.934;2023-04-24T09:10:23;9.57;;;8.57;;
4317;SDS011;2172;53.576;9.934;2023-04-24T09:12:51;11.13;;;9.17;;
4317;SDS011;2172;53.576;9.934;2023-04-24T09:15:19;9.50;;;8.70;;
4317;SDS011;2172;53.576;9.934;2023-04-24T09:17:47;11.30;;;9.13;;
4317;SDS011;2172;53.576;9.934;2023-04-24T09:20:14;10.17;;;9.17;;
4317;SDS011;2172;53.576;9.934;2023-04-24T09:22:42;9.83;;;8.87;;
4317;SDS011;2172;53.576;9.934;2023-04-24T09:25:10;9.53;;;8.60;;
4317;SDS011;2172;53.576;9.934;2023-04-24T09:27:42;10.77;;;8.90;;
4317;SDS011;2172;53.576;9.934;2023-04-24T09:30:10;9.40;;;8.50;;
4317;SDS011;2172;53.576;9.934;2023-04-24T09:32:38;12.80;;;9.13;;
4317;SDS011;2172;53.576;9.934;2023-04-24T09:35:08;9.40;;;8.60;;
4317;SDS011;2172;53.576;9.934;2023-04-24T09:37:37;10.50;;;8.50;;
4317;SDS011;2172;53.576;9.934;2023-04-24T09:40:10;10.67;;;9.07;;
4317;SDS011;2172;53.576;9.934;2023-04-24T09:42:39;10.07;;;8.80;;
4317;SDS011;2172;53.576;9.934;2023-04-24T09:45:11;9.83;;;9.03;;
4317;SDS011;2172;53.576;9.934;2023-04-24T09:47:39;10.50;;;9.40;;
4317;SDS011;2172;53.576;9.934;2023-04-24T09:50:11;10.50;;;9.40;;
4317;SDS011;2172;53.576;9.934;2023-04-24T09:52:40;12.07;;;10.50;;
4317;SDS011;2172;53.576;9.934;2023-04-24T09:57:56;11.40;;;10.20;;
4317;SDS011;2172;53.576;9.934;2023-04-24T10:00:25;11.53;;;10.37;;
4317;SDS011;2172;53.576;9.934;2023-04-24T10:02:55;11.30;;;10.30;;
4317;SDS011;2172;53.576;9.934;2023-04-24T10:05:24;11.73;;;10.57;;
4317;SDS011;2172;53.576;9.934;2023-04-24T10:07:55;13.97;;;12.50;;
4317;SDS011;2172;53.576;9.934;2023-04-24T10:10:24;13.40;;;11.70;;
4317;SDS011;2172;53.576;9.934;2023-04-24T10:12:51;12.93;;;11.60;;
4317;SDS011;2172;53.576;9.934;2023-04-24T10:15:21;13.63;;;12.10;;
4317;SDS011;2172;53.576;9.934;2023-04-24T10:17:49;14.57;;;12.93;;
4317;SDS011;2172;53.576;9.934;2023-04-24T10:20:19;13.97;;;11.70;;
4317;SDS011;2172;53.576;9.934;2023-04-24T10:22:47;16.60;;;12.83;;
4317;SDS011;2172;53.576;9.934;2023-04-24T10:25:19;14.80;;;12.43;;
4317;SDS011;2172;53.576;9.934;2023-04-24T10:27:47;15.33;;;13.80;;
4317;SDS011;2172;53.576;9.934;2023-04-24T10:30:16;21.60;;;14.27;;
4317;SDS011;2172;53.576;9.934;2023-04-24T10:32:46;15.07;;;13.40;;
4317;SDS011;2172;53.576;9.934;2023-04-24T10:35:14;17.13;;;13.80;;
4317;SDS011;2172;53.576;9.934;2023-04-24T10:37:43;16.60;;;14.27;;
4317;SDS011;2172;53.576;9.934;2023-04-24T10:40:12;16.17;;;14.50;;
4317;SDS011;2172;53.576;9.934;2023-04-24T10:42:47;16.27;;;14.63;;
4317;SDS011;2172;53.576;9.934;2023-04-24T10:45:18;16.03;;;14.33;;
4317;SDS011;2172;53.576;9.934;2023-04-24T10:47:54;14.87;;;13.17;;
4317;SDS011;2172;53.576;9.934;2023-04-24T10:50:28;21.50;;;15.33;;
4317;SDS011;2172;53.576;9.934;2023-04-24T10:53:15;16.77;;;15.10;;
4317;SDS011;2172;53.576;9.934;2023-04-24T10:55:44;16.57;;;14.87;;
4317;SDS011;2172;53.576;9.934;2023-04-24T10:58:13;15.90;;;13.50;;
4317;SDS011;2172;53.576;9.934;2023-04-24T11:00:42;19.47;;;14.27;;
4317;SDS011;2172;53.576;9.934;2023-04-24T11:03:23;15.63;;;13.97;;
4317;SDS011;2172;53.576;9.934;2023-04-24T11:05:55;15.37;;;13.77;;
4317;SDS011;2172;53.576;9.934;2023-04-24T11:08:25;15.87;;;13.70;;
4317;SDS011;2172;53.576;9.934;2023-04-24T11:11:00;16.57;;;14.37;;
4317;SDS011;2172;53.576;9.934;2023-04-24T11:16:33;14.97;;;12.93;;
4317;SDS011;2172;53.576;9.934;2023-04-24T11:19:06;17.17;;;14.33;;
4317;SDS011;2172;53.576;9.934;2023-04-24T11:21:40;19.93;;;13.77;;
4317;SDS011;2172;53.576;9.934;2023-04-24T11:24:25;19.10;;;13.73;;
4317;SDS011;2172;53.576;9.934;2023-04-24T11:26:54;16.70;;;13.13;;
4317;SDS011;2172;53.576;9.934;2023-04-24T11:29:38;13.67;;;11.80;;
4317;SDS011;2172;53.576;9.934;2023-04-24T11:32:28;13.57;;;11.87;;
4317;SDS011;2172;53.576;9.934;2023-04-24T11:34:59;15.93;;;14.17;;
4317;SDS011;2172;53.576;9.934;2023-04-24T11:37:28;16.97;;;13.67;;
4317;SDS011;2172;53.576;9.934;2023-04-24T11:39:56;13.67;;;12.20;;
4317;SDS011;2172;53.576;9.934;2023-04-24T11:42:24;14.70;;;13.20;;
4317;SDS011;2172;53.576;9.934;2023-04-24T11:44:52;14.83;;;12.50;;
4317;SDS011;2172;53.576;9.934;2023-04-24T11:47:27;20.30;;;13.93;;
4317;SDS011;2172;53.576;9.934;2023-04-24T11:49:55;14.70;;;13.20;;
4317;SDS011;2172;53.576;9.934;2023-04-24T11:52:24;15.27;;;12.80;;
4317;SDS011;2172;53.576;9.934;2023-04-24T11:54:52;14.17;;;12.70;;
4317;SDS011;2172;53.576;9.934;2023-04-24T11:57:19;13.87;;;12.37;;
4317;SDS011;2172;53.576;9.934;2023-04-24T11:59:48;13.10;;;11.80;;
4317;SDS011;2172;53.576;9.934;2023-04-24T12:02:22;10.90;;;9.77;;
4317;SDS011;2172;53.576;9.934;2023-04-24T12:04:52;11.33;;;9.97;;
4317;SDS011;2172;53.576;9.934;2023-04-24T12:07:20;11.50;;;10.40;;
4317;SDS011;2172;53.576;9.934;2023-04-24T12:09:50;10.67;;;9.67;;
4317;SDS011;2172;53.576;9.934;2023-04-24T12:12:24;13.97;;;10.90;;
4317;SDS011;2172;53.576;9.934;2023-04-24T12:14:53;11.93;;;10.67;;
4317;SDS011;2172;53.576;9.934;2023-04-24T12:17:25;15.17;;;11.50;;
4317;SDS011;2172;53.576;9.934;2023-04-24T12:19:56;12.80;;;10.97;;
4317;SDS011;2172;53.576;9.934;2023-04-24T12:22:26;11.73;;;10.53;;
4317;SDS011;2172;53.576;9.934;2023-04-24T12:25:01;14.50;;;11.03;;
4317;SDS011;2172;53.576;9.934;2023-04-24T12:27:31;12.60;;;10.70;;
4317;SDS011;2172;53.576;9.934;2023-04-24T12:29:59;13.57;;;11.20;;
4317;SDS011;2172;53.576;9.934;2023-04-24T12:32:28;11.93;;;10.50;;
4317;SDS011;2172;53.576;9.934;2023-04-24T12:34:56;11.97;;;10.77;;
4317;SDS011;2172;53.576;9.934;2023-04-24T12:37:24;11.90;;;10.87;;
4317;SDS011;2172;53.576;9.934;2023-04-24T12:40:04;11.53;;;10.33;;
4317;SDS011;2172;53.576;9.934;2023-04-24T12:42:33;14.43;;;11.37;;
4317;SDS011;2172;53.576;9.934;2023-04-24T12:45:02;11.73;;;10.00;;
4317;SDS011;2172;53.576;9.934;2023-04-24T12:47:31;12.03;;;10.83;;
4317;SDS011;2172;53.576;9.934;2023-04-24T12:49:59;12.50;;;10.40;;
4317;SDS011;2172;53.576;9.934;2023-04-24T12:52:28;14.80;;;11.27;;
4317;SDS011;2172;53.576;9.934;2023-04-24T12:54:56;13.97;;;11.17;;
4317;SDS011;2172;53.576;9.934;2023-04-24T12:57:27;11.20;;;10.10;;
4317;SDS011;2172;53.576;9.934;2023-04-24T12:59:55;12.30;;;11.07;;
4317;SDS011;2172;53.576;9.934;2023-04-24T13:02:24;11.87;;;10.63;;
4317;SDS011;2172;53.576;9.934;2023-04-24T13:04:53;11.67;;;10.47;;
4317;SDS011;2172;53.576;9.934;2023-04-24T13:07:21;10.13;;;9.17;;
4317;SDS011;2172;53.576;9.934;2023-04-24T13:09:49;11.83;;;10.60;;
4317;SDS011;2172;53.576;9.934;2023-04-24T13:12:17;11.83;;;10.10;;
4317;SDS011;2172;53.576;9.934;2023-04-24T13:14:47;19.73;;;11.57;;
4317;SDS011;2172;53.576;9.934;2023-04-24T13:17:14;9.80;;;8.90;;
4317;SDS011;2172;53.576;9.934;2023-04-24T13:19:42;11.20;;;9.80;;
4317;SDS011;2172;53.576;9.934;2023-04-24T13:22:11;10.60;;;9.50;;
4317;SDS011;2172;53.576;9.934;2023-04-24T13:24:39;11.07;;;9.77;;
4317;SDS011;2172;53.576;9.934;2023-04-24T13:27:07;9.93;;;8.60;;
4317;SDS011;2172;53.576;9.934;2023-04-24T13:29:34;11.90;;;9.37;;
4317;SDS011;2172;53.576;9.934;2023-04-24T13:32:03;10.03;;;9.03;;
4317;SDS011;2172;53.576;9.934;2023-04-24T13:34:31;9.40;;;8.50;;
4317;SDS011;2172;53.576;9.934;2023-04-24T13:36:59;10.20;;;9.30;;
4317;SDS011;2172;53.576;9.934;2023-04-24T13:39:28;10.00;;;9.07;;
4317;SDS011;2172;53.576;9.934;2023-04-24T13:41:56;12.63;;;9.27;;
4317;SDS011;2172;53.576;9.934;2023-04-24T13:44:24;9.87;;;8.40;;
4317;SDS011;2172;53.576;9.934;2023-04-24T13:46:52;10.00;;;9.00;;
4317;SDS011;2172;53.576;9.934;2023-04-24T13:49:23;10.67;;;9.17;;
4317;SDS011;2172;53.576;9.934;2023-04-24T13:51:51;9.80;;;8.80;;
4317;SDS011;2172;53.576;9.934;2023-04-24T13:54:19;10.53;;;9.50;;
4317;SDS011;2172;53.576;9.934;2023-04-24T13:56:48;10.83;;;9.33;;
4317;SDS011;2172;53.576;9.934;2023-04-24T13:59:16;9.80;;;8.90;;
4317;SDS011;2172;53.576;9.934;2023-04-24T14:01:43;10.40;;;9.30;;
4317;SDS011;2172;53.576;9.934;2023-04-24T14:04:11;10.47;;;9.33;;
4317;SDS011;2172;53.576;9.934;2023-04-24T14:06:40;10.13;;;9.33;;
4317;SDS011;2172;53.576;9.934;2023-04-24T14:09:07;9.83;;;8.83;;
4317;SDS011;2172;53.576;9.934;2023-04-24T14:11:35;9.23;;;8.37;;
4317;SDS011;2172;53.576;9.934;2023-04-24T14:14:03;8.57;;;7.70;;
4317;SDS011;2172;53.576;9.934;2023-04-24T14:16:31;9.37;;;8.40;;
4317;SDS011;2172;53.576;9.934;2023-04-24T14:18:58;9.00;;;8.20;;
4317;SDS011;2172;53.576;9.934;2023-04-24T14:21:26;9.30;;;8.30;;
4317;SDS011;2172;53.576;9.934;2023-04-24T14:23:55;8.70;;;7.80;;
4317;SDS011;2172;53.576;9.934;2023-04-24T14:26:23;9.23;;;8.40;;
4317;SDS011;2172;53.576;9.934;2023-04-24T14:28:51;9.97;;;8.97;;
4317;SDS011;2172;53.576;9.934;2023-04-24T14:31:20;11.57;;;9.20;;
4317;SDS011;2172;53.576;9.934;2023-04-24T14:33:47;11.83;;;10.60;;
4317;SDS011;2172;53.576;9.934;2023-04-24T14:36:15;12.87;;;11.57;;
4317;SDS011;2172;53.576;9.934;2023-04-24T14:38:43;14.00;;;11.80;;
4317;SDS011;2172;53.576;9.934;2023-04-24T14:41:12;22.60;;;13.03;;
4317;SDS011;2172;53.576;9.934;2023-04-24T14:43:39;13.27;;;11.97;;
4317;SDS011;2172;53.576;9.934;2023-04-24T14:46:07;15.27;;;12.43;;
4317;SDS011;2172;53.576;9.934;2023-04-24T14:48:34;16.17;;;13.10;;
4317;SDS011;2172;53.576;9.934;2023-04-24T14:51:02;16.90;;;13.70;;
4317;SDS011;2172;53.576;9.934;2023-04-24T14:53:30;17.60;;;15.10;;
4317;SDS011;2172;53.576;9.934;2023-04-24T14:56:00;17.10;;;15.17;;
4317;SDS011;2172;53.576;9.934;2023-04-24T14:58:30;17.10;;;15.07;;
4317;SDS011;2172;53.576;9.934;2023-04-24T15:00:57;15.83;;;13.93;;
4317;SDS011;2172;53.576;9.934;2023-04-24T15:03:25;17.60;;;14.00;;
4317;SDS011;2172;53.576;9.934;2023-04-24T15:05:52;15.10;;;11.80;;
4317;SDS011;2172;53.576;9.934;2023-04-24T15:08:20;15.30;;;12.70;;
4317;SDS011;2172;53.576;9.934;2023-04-24T15:10:48;15.10;;;11.93;;
4317;SDS011;2172;53.576;9.934;2023-04-24T15:13:15;11.97;;;10.67;;
4317;SDS011;2172;53.576;9.934;2023-04-24T15:15:44;9.00;;;7.23;;
4317;SDS011;2172;53.576;9.934;2023-04-24T15:18:13;9.00;;;7.33;;
4317;SDS011;2172;53.576;9.934;2023-04-24T15:20:40;6.83;;;5.67;;
4317;SDS011;2172;53.576;9.934;2023-04-24T15:23:08;5.00;;;4.37;;
4317;SDS011;2172;53.576;9.934;2023-04-24T15:25:36;4.70;;;4.20;;